Terminal Aerodrome Forecast
Issued by NWS Cleveland, OH

Home | Current Version | Previous Version | Graphics & Text | Print | Product List | Glossary On
Versions: 1 2 3 4 5 6 7 8 9 10 11 12 13 14 15 16 17
000
FTUS41 KCLE 031140
TAFYNG
TAF
KYNG 031140Z 0312/0412 25003KT 2SM BR VCTS BKN028CB OVC080
     FM031300 26004KT 5SM BR SCT050 BKN200
     FM031400 32006KT P6SM SCT050 BKN200
     FM040300 VRB04KT P6SM VCSH SCT060 BKN120
     FM041000 VRB03KT P6SM BKN100=

USA.gov is the U.S. government's official web portal to all federal, state and local government web resources and services.